Route Details

Aircraft Information
Group: Narrowbodies
Types: B738, B752
Route Data
Distance: 963nm
Duration: 3h 04m
Origin METAR: TIST 160053Z 07003KT 10SM CLR 29/25 A2997 RMK AO2 SLP150 T02890250
Dest. METAR: KMIA 160053Z 00000KT 10SM FEW025 BKN250 27/24 A2993 RMK AO2 SLP136 T02720244
Freight Data
(for Aug 16, 2022)
Load Factor:
71%
Manifested Cargo: 47,796lbs
Financial History
Total Freight: 36,138lbs
Average Load: 0lbs/flt
Fuel Used: 62,490lbs
Avg. Fuel Used: 0lbs/flt
Fuel Expense: $24,979
Avg. Fuel Expense: $0
Avg. Fuel Cost: $0/lbs
Total Gross Income: $88,467
Pilot Pay: $885
Total Expenses: $45,264
Total Revenue: $14,886
Average Revenue: $0

Capitol Logistics 432




TIST
Cyril E King Airport
Charlotte Amalie, VI
KMIA
Miami International Airport
Miami, US

Activity Log

Date Flight Route Aircraft Duration
05/21/2022 CPX344 PALCO7 PALCO RTE6 SJU DCT ACONY Y308 MADIZ VIICE2 B752 2h 49m
10/19/2021 CPX344 PALCO7 PALCO RTE6 SJU ACONY Y308 FOWEE FLIPR7 B738 2h 56m
09/14/2021 CPX344 PALCO7 PALCO RTE6 SJU ACONY Y308 FOWEE FLIPR7 B738 2h 48m
08/11/2021 CPX344 PALCO7 PALCO RTE6 SJU ACONY Y308 FOWEE FOWEE1 B738 2h 45m
08/09/2021 CPX344 PALCO7 PALCO RTE6 SJU ACONY Y308 FOWEE FOWEE1 B738 2h 39m